Scottville, Michigan
Current Conditions -  °F | °C
As of 3:55 AM on Sunday 26 Oct 2014 (Local Time) from KLDM Reporting Station
Clear Clear  
Wind Chill: 49°   Ceiling: Unl
Heat Index: 49°   Visibility: 10mi
Dew Point: 39°   Wind: 3mph
Humidity: 67%   Direction: 320°NW
Pressure: 29.92"   Gusts: NA
Location:  43.95°N, 86.28°W
Report Text: KLDM 260755Z AUTO 32003KT 10SM CLR 10/04 A2992 RMK AO2 T00960037
Loading
Personal Weather Stations






























Interactive Weather Map
Tropical Storm Tracking
New forecast layout! Learn more

10-Day Weather Forecast

Advertisements
Track Severe Weather on mobile